createdAt,value
2022-10-17T00:02:14.102Z,17.88
2022-10-17T00:04:41.713Z,17.88
2022-10-17T00:07:34.373Z,17.92
2022-10-17T00:10:25.378Z,17.90
2022-10-17T00:12:55.325Z,17.82
2022-10-17T00:15:23.548Z,17.84
2022-10-17T00:17:51.506Z,18.02
2022-10-17T00:20:19.637Z,17.85
2022-10-17T00:26:40.530Z,17.91
2022-10-17T00:29:18.738Z,17.81
2022-10-17T00:31:48.771Z,17.65
2022-10-17T00:34:21.501Z,17.69
2022-10-17T00:38:00.463Z,17.60
2022-10-17T00:40:27.717Z,17.60
2022-10-17T00:42:58.208Z,17.60
2022-10-17T00:45:30.509Z,17.53
2022-10-17T00:48:05.423Z,17.56
2022-10-17T00:51:15.496Z,17.50
2022-10-17T00:53:43.640Z,17.49
2022-10-17T00:56:11.880Z,17.60
2022-10-17T00:58:41.082Z,17.50
2022-10-17T01:01:08.792Z,17.39
2022-10-17T01:03:36.487Z,17.51
2022-10-17T01:06:04.280Z,17.55
2022-10-17T01:09:09.434Z,17.69
2022-10-17T01:12:11.943Z,17.38
2022-10-17T01:15:00.173Z,17.29
2022-10-17T01:17:57.671Z,17.44
2022-10-17T01:20:50.415Z,17.37
2022-10-17T01:27:54.792Z,17.54
2022-10-17T01:30:26.282Z,17.33
2022-10-17T01:33:12.547Z,17.17
2022-10-17T01:36:04.946Z,16.96
2022-10-17T01:38:53.399Z,16.98
2022-10-17T01:41:40.642Z,16.92
2022-10-17T01:44:34.727Z,16.69
2022-10-17T01:47:09.105Z,16.67
2022-10-17T01:49:45.381Z,16.75
2022-10-17T01:52:44.116Z,16.58
2022-10-17T01:56:25.544Z,16.75
2022-10-17T01:59:21.549Z,16.64
2022-10-17T02:01:54.103Z,16.70
2022-10-17T02:04:23.890Z,16.66
2022-10-17T02:07:06.221Z,16.85
2022-10-17T02:09:40.541Z,16.88
2022-10-17T02:12:34.833Z,17.00
2022-10-17T02:15:42.031Z,17.02
2022-10-17T02:18:35.923Z,17.17
2022-10-17T02:21:08.666Z,16.98
2022-10-17T02:24:33.330Z,17.05
2022-10-17T02:27:38.362Z,16.94
2022-10-17T02:30:21.463Z,16.97
2022-10-17T02:33:39.597Z,16.92
2022-10-17T02:36:46.334Z,17.10
2022-10-17T02:39:27.492Z,17.18
2022-10-17T02:45:17.614Z,17.15
2022-10-17T02:47:48.147Z,17.14
2022-10-17T02:50:19.485Z,17.17
2022-10-17T02:53:08.128Z,16.94
2022-10-17T02:56:31.893Z,16.38
2022-10-17T03:02:16.178Z,16.40
2022-10-17T03:04:47.330Z,16.33
2022-10-17T03:07:16.664Z,16.37
2022-10-17T03:10:19.594Z,16.12
2022-10-17T03:12:57.561Z,16.02
2022-10-17T03:15:28.768Z,16.32
2022-10-17T03:17:56.394Z,16.38
2022-10-17T03:20:27.431Z,16.25
2022-10-17T03:23:25.358Z,16.00
2022-10-17T03:26:18.599Z,16.22
2022-10-17T03:29:31.699Z,16.14
2022-10-17T03:32:03.255Z,16.26
2022-10-17T03:34:30.901Z,16.37
2022-10-17T03:36:58.581Z,16.27
2022-10-17T03:39:28.469Z,16.22
2022-10-17T03:42:14.357Z,16.37
2022-10-17T03:44:59.871Z,16.16
2022-10-17T03:47:29.492Z,16.15
2022-10-17T03:49:57.337Z,15.98
2022-10-17T03:52:27.624Z,15.83
2022-10-17T03:55:43.460Z,15.97
2022-10-17T03:58:11.154Z,16.17
2022-10-17T04:00:38.880Z,16.14
2022-10-17T04:03:06.552Z,16.38
2022-10-17T04:06:19.041Z,16.37
2022-10-17T04:09:16.452Z,16.59
2022-10-17T04:12:00.523Z,16.37
2022-10-17T04:14:58.561Z,16.40
2022-10-17T04:17:44.510Z,16.48
2022-10-17T04:20:12.813Z,16.37
2022-10-17T04:22:40.466Z,16.30
2022-10-17T04:25:17.220Z,16.47
2022-10-17T04:27:49.109Z,16.37
2022-10-17T04:30:17.633Z,16.15
2022-10-17T04:33:30.501Z,16.03
2022-10-17T04:36:12.521Z,15.83
2022-10-17T04:38:43.501Z,15.84
2022-10-17T04:41:17.151Z,15.77
2022-10-17T04:43:50.245Z,15.89
2022-10-17T04:46:20.602Z,15.64
2022-10-17T04:49:07.092Z,15.64
2022-10-17T04:51:35.778Z,15.50
2022-10-17T04:54:42.272Z,15.32
2022-10-17T04:58:03.351Z,15.38
2022-10-17T05:01:05.873Z,15.57
2022-10-17T05:03:31.899Z,15.60
2022-10-17T05:06:35.933Z,15.63
2022-10-17T05:09:35.910Z,15.29
2022-10-17T05:12:06.715Z,15.36
2022-10-17T05:15:11.402Z,14.91
2022-10-17T05:18:25.290Z,14.79
2022-10-17T05:20:53.114Z,14.82
2022-10-17T05:23:46.222Z,14.58
2022-10-17T05:26:16.999Z,14.68
2022-10-17T05:28:48.164Z,14.78
2022-10-17T05:31:16.768Z,15.11
2022-10-17T05:33:44.490Z,15.31
2022-10-17T05:36:14.740Z,15.74
2022-10-17T05:38:42.638Z,15.61
2022-10-17T05:41:38.840Z,15.69
2022-10-17T05:44:06.504Z,15.51
2022-10-17T05:46:49.535Z,15.53
2022-10-17T05:49:53.017Z,15.57
2022-10-17T05:52:33.427Z,15.68
2022-10-17T05:55:11.647Z,15.65
2022-10-17T05:57:40.258Z,15.60
2022-10-17T06:00:52.900Z,15.88
2022-10-17T06:03:21.107Z,15.69
2022-10-17T06:05:48.921Z,15.56
2022-10-17T06:09:00.387Z,15.52
2022-10-17T06:11:44.914Z,15.53
2022-10-17T06:14:13.049Z,15.80
2022-10-17T06:20:18.050Z,15.98
2022-10-17T06:23:12.039Z,15.98
2022-10-17T06:26:10.048Z,16.03
2022-10-17T06:36:00.850Z,17.10
2022-10-17T06:40:33.561Z,17.25
2022-10-17T06:46:21.246Z,16.67
2022-10-17T06:49:26.562Z,17.16
2022-10-17T06:52:17.316Z,17.37
2022-10-17T06:54:59.100Z,17.58
2022-10-17T06:58:28.431Z,17.73
2022-10-17T07:01:47.067Z,17.64
2022-10-17T07:04:25.827Z,17.64
2022-10-17T07:10:38.260Z,18.04
2022-10-17T07:14:22.921Z,17.91
2022-10-17T07:16:51.389Z,18.42
2022-10-17T07:19:27.257Z,18.70
2022-10-17T07:22:19.803Z,18.68
2022-10-17T07:27:29.740Z,18.91
2022-10-17T07:29:58.957Z,19.00
2022-10-17T07:32:55.881Z,19.63
2022-10-17T07:35:23.733Z,20.48
2022-10-17T07:39:07.940Z,21.29
2022-10-17T07:43:00.993Z,21.57
2022-10-17T07:45:29.293Z,21.96
2022-10-17T07:53:31.794Z,22.30
2022-10-17T07:57:32.160Z,23.26
2022-10-17T08:00:09.763Z,24.02
2022-10-17T08:03:11.007Z,23.83
2022-10-17T08:05:46.129Z,24.89
2022-10-17T08:12:16.602Z,23.77
2022-10-17T08:15:13.899Z,23.84
2022-10-17T08:17:42.027Z,25.07
2022-10-17T08:20:16.568Z,25.64
2022-10-17T08:23:11.987Z,27.09
2022-10-17T08:25:42.752Z,25.35
2022-10-17T11:05:42.646Z,26.32
2022-10-17T11:08:29.398Z,25.26
2022-10-17T11:11:08.102Z,25.84
2022-10-17T11:15:01.460Z,26.16
2022-10-17T11:17:40.569Z,26.24
2022-10-17T11:20:12.755Z,26.01
2022-10-17T11:22:47.101Z,26.50
2022-10-17T11:25:36.319Z,26.41
2022-10-17T11:28:54.452Z,26.89
2022-10-17T11:32:44.686Z,27.09
2022-10-17T11:35:58.672Z,26.94
2022-10-17T11:38:54.168Z,26.41
2022-10-17T11:41:34.387Z,26.84
2022-10-17T11:47:54.335Z,27.26
2022-10-17T11:53:30.056Z,26.12
2022-10-17T11:56:00.449Z,26.22
2022-10-17T11:58:48.390Z,26.46
2022-10-17T12:01:26.952Z,26.64
2022-10-17T12:04:21.953Z,26.30
2022-10-17T12:07:17.059Z,25.47
2022-10-17T12:09:55.763Z,25.71
2022-10-17T12:12:29.680Z,26.10
2022-10-17T12:15:23.482Z,26.12
2022-10-17T12:18:04.041Z,26.09
2022-10-17T12:20:36.371Z,26.56
2022-10-17T12:23:06.221Z,26.66
2022-10-17T12:25:39.150Z,26.32
2022-10-17T12:28:06.506Z,26.52
2022-10-17T12:30:34.546Z,26.72
2022-10-17T12:33:22.410Z,26.50
2022-10-17T12:35:51.216Z,26.46
2022-10-17T12:38:22.803Z,26.40
2022-10-17T12:40:52.978Z,26.18
2022-10-17T12:43:29.388Z,26.45
2022-10-17T12:46:05.015Z,26.54
2022-10-17T12:48:38.459Z,26.29
2022-10-17T12:51:37.658Z,26.23
2022-10-17T12:54:15.100Z,25.65
2022-10-17T12:56:46.474Z,26.27
2022-10-17T12:59:27.831Z,26.41
2022-10-17T13:02:02.019Z,26.26
2022-10-17T13:04:30.691Z,26.27
2022-10-17T13:07:01.047Z,26.47
2022-10-17T13:09:33.559Z,26.64
2022-10-17T13:12:05.016Z,26.38
2022-10-17T13:14:34.031Z,26.47
2022-10-17T13:17:06.218Z,26.32
2022-10-17T13:19:45.449Z,26.12
2022-10-17T13:22:20.701Z,26.22
2022-10-17T13:24:50.028Z,26.37
2022-10-17T13:27:27.414Z,26.53
2022-10-17T13:29:56.736Z,26.40
2022-10-17T13:32:26.954Z,26.51
2022-10-17T13:35:31.686Z,26.71
2022-10-17T13:38:07.666Z,26.54
2022-10-17T13:40:49.478Z,26.56
2022-10-17T13:43:20.816Z,26.66
2022-10-17T13:45:53.152Z,26.79
2022-10-17T13:48:26.826Z,26.94
2022-10-17T13:51:01.732Z,27.14
2022-10-17T13:53:43.938Z,26.76
2022-10-17T13:56:28.875Z,26.72
2022-10-17T13:59:01.558Z,26.76
2022-10-17T14:01:29.849Z,26.97
2022-10-17T14:04:08.298Z,26.82
2022-10-17T14:06:47.689Z,26.50
2022-10-17T14:09:26.481Z,26.74
2022-10-17T14:12:19.749Z,26.99
2022-10-17T14:17:38.631Z,26.78
2022-10-17T14:20:40.694Z,26.86
2022-10-17T14:23:22.552Z,26.61
2022-10-17T14:25:44.868Z,26.64
2022-10-17T14:28:13.708Z,26.40
2022-10-17T14:30:57.806Z,26.73
2022-10-17T14:33:32.054Z,26.77
2022-10-17T14:36:01.874Z,26.77
2022-10-17T14:38:30.368Z,26.74
2022-10-17T14:44:06.627Z,26.45
2022-10-17T14:46:37.851Z,26.17
2022-10-17T14:49:15.382Z,26.41
2022-10-17T14:52:29.714Z,26.41
2022-10-17T14:54:59.715Z,26.44
2022-10-17T14:57:40.784Z,26.24
2022-10-17T15:00:10.860Z,26.24
2022-10-17T15:02:38.405Z,26.25
2022-10-17T15:05:09.498Z,26.19
2022-10-17T15:07:41.170Z,26.28
2022-10-17T15:10:33.638Z,26.14
2022-10-17T15:15:53.789Z,26.24
2022-10-17T15:18:21.382Z,26.26
2022-10-17T15:20:55.288Z,26.21
2022-10-17T15:23:32.346Z,26.08
2022-10-17T15:26:00.123Z,25.97
2022-10-17T15:28:31.044Z,25.84
2022-10-17T15:30:58.605Z,25.95
2022-10-17T15:33:26.123Z,26.02
2022-10-17T15:35:53.810Z,25.81
2022-10-17T15:38:21.488Z,25.85
2022-10-17T15:40:50.989Z,25.71
2022-10-17T15:43:19.984Z,25.67
2022-10-17T15:45:48.361Z,25.61
2022-10-17T15:48:24.194Z,25.48
2022-10-17T15:50:51.709Z,25.44
2022-10-17T15:53:19.613Z,25.19
2022-10-17T15:55:50.106Z,25.12
2022-10-17T15:58:19.071Z,25.04
2022-10-17T16:00:47.413Z,24.90
2022-10-17T16:03:15.015Z,24.74
2022-10-17T16:05:42.493Z,24.98
2022-10-17T16:08:10.239Z,24.60
2022-10-17T16:10:43.320Z,23.99
2022-10-17T16:13:20.319Z,23.53
2022-10-17T16:15:47.949Z,23.42
2022-10-17T16:18:15.497Z,23.32
2022-10-17T16:20:43.069Z,23.26
2022-10-17T16:23:13.004Z,23.01
2022-10-17T16:25:40.894Z,23.03
2022-10-17T16:28:08.558Z,22.91
2022-10-17T16:30:42.627Z,22.79
2022-10-17T16:33:11.072Z,22.83
2022-10-17T16:35:38.826Z,22.74
2022-10-17T16:38:07.804Z,22.58
2022-10-17T16:40:38.798Z,22.47
2022-10-17T16:43:06.994Z,22.47
2022-10-17T16:45:36.430Z,22.52
2022-10-17T16:48:04.180Z,22.40
2022-10-17T16:50:35.456Z,22.39
2022-10-17T16:53:04.129Z,22.34
2022-10-17T16:55:31.698Z,22.18
2022-10-17T16:58:00.123Z,22.26
2022-10-17T17:00:27.741Z,22.23
2022-10-17T17:02:55.449Z,22.19
2022-10-17T17:05:23.167Z,22.08
2022-10-17T17:07:50.820Z,22.12
2022-10-17T17:10:18.434Z,22.02
2022-10-17T17:12:45.886Z,21.78
2022-10-17T17:15:13.350Z,21.69
2022-10-17T17:17:56.613Z,21.62
2022-10-17T17:20:24.858Z,21.74
2022-10-17T17:22:53.179Z,21.73
2022-10-17T17:25:25.861Z,21.67
2022-10-17T17:27:56.532Z,21.57
2022-10-17T17:30:25.071Z,21.47
2022-10-17T17:32:52.613Z,21.27
2022-10-17T17:35:20.247Z,21.33
2022-10-17T17:37:47.788Z,21.29
2022-10-17T17:40:16.459Z,21.28
2022-10-17T17:42:46.417Z,21.20
2022-10-17T17:45:14.657Z,21.20
2022-10-17T17:47:42.294Z,21.31
2022-10-17T17:50:10.126Z,21.35
2022-10-17T17:52:42.290Z,21.28
2022-10-17T17:55:25.370Z,21.14
2022-10-17T17:57:52.961Z,20.87
2022-10-17T18:00:20.558Z,20.76
2022-10-17T18:02:48.132Z,20.69
2022-10-17T18:05:15.879Z,20.61
2022-10-17T18:07:43.419Z,20.45
2022-10-17T18:12:43.263Z,20.26
2022-10-17T18:15:11.222Z,20.02
2022-10-17T18:17:38.990Z,19.54
2022-10-17T18:20:07.071Z,19.29
2022-10-17T18:22:35.806Z,19.42
2022-10-17T18:25:03.740Z,19.01
2022-10-17T18:27:31.337Z,19.33
2022-10-17T18:29:58.801Z,19.63
2022-10-17T18:32:26.334Z,19.75
2022-10-17T18:34:53.877Z,19.71
2022-10-17T18:37:21.269Z,19.05
2022-10-17T18:39:51.595Z,19.04
2022-10-17T18:42:19.084Z,18.97
2022-10-17T18:44:47.516Z,19.05
2022-10-17T18:47:15.228Z,19.00
2022-10-17T18:49:43.066Z,19.03
2022-10-17T18:52:10.566Z,19.03
2022-10-17T18:54:38.141Z,18.96
2022-10-17T18:57:06.342Z,18.98
2022-10-17T18:59:34.149Z,19.07
2022-10-17T19:02:01.769Z,19.09
2022-10-17T19:04:29.393Z,19.05
2022-10-17T19:06:56.885Z,18.91
2022-10-17T19:09:24.621Z,18.92
2022-10-17T19:11:52.151Z,18.90
2022-10-17T19:14:23.292Z,18.81
2022-10-17T19:16:53.935Z,18.78
2022-10-17T19:19:25.967Z,18.71
2022-10-17T19:21:53.771Z,18.83
2022-10-17T19:24:27.039Z,18.97
2022-10-17T19:26:56.917Z,18.86
2022-10-17T19:29:27.245Z,18.92
2022-10-17T19:34:23.114Z,18.91
2022-10-17T19:36:50.633Z,19.09
2022-10-17T19:39:20.889Z,19.26
2022-10-17T19:41:48.701Z,19.21
2022-10-17T19:44:16.377Z,19.17
2022-10-17T19:46:49.171Z,19.45
2022-10-17T19:49:17.845Z,19.47
2022-10-17T19:51:45.919Z,19.44
2022-10-17T19:54:15.355Z,19.29
2022-10-17T19:56:44.043Z,18.56
2022-10-17T19:59:14.928Z,18.12
2022-10-17T20:01:43.890Z,18.63
2022-10-17T20:04:12.518Z,18.95
2022-10-17T20:06:40.986Z,18.93
2022-10-17T20:09:13.936Z,18.81
2022-10-17T20:11:44.474Z,18.70
2022-10-17T20:14:12.078Z,18.79
2022-10-17T20:16:39.527Z,18.87
2022-10-17T20:19:09.479Z,19.03
2022-10-17T20:21:39.619Z,19.05
2022-10-17T20:24:15.758Z,19.02
2022-10-17T20:26:44.779Z,18.96
2022-10-17T20:29:18.174Z,19.03
2022-10-17T20:31:46.859Z,19.10
2022-10-17T20:34:16.432Z,18.86
2022-10-17T20:36:44.152Z,17.34
2022-10-17T20:39:17.660Z,17.40
2022-10-17T20:41:56.546Z,17.40
2022-10-17T20:44:28.515Z,18.06
2022-10-17T20:47:02.687Z,18.31
2022-10-17T20:49:31.507Z,18.36
2022-10-17T20:52:02.118Z,18.35
2022-10-17T20:54:32.885Z,18.29
2022-10-17T20:57:04.936Z,18.24
2022-10-17T20:59:35.441Z,18.27
2022-10-17T21:02:05.228Z,18.34
2022-10-17T21:04:46.012Z,18.25
2022-10-17T21:07:14.202Z,18.25
2022-10-17T21:09:41.699Z,17.99
2022-10-17T21:12:09.313Z,17.93
2022-10-17T21:14:36.822Z,18.07
2022-10-17T21:17:05.418Z,18.21
2022-10-17T21:19:33.215Z,18.18
2022-10-17T21:22:00.932Z,18.22
2022-10-17T21:24:28.488Z,18.20
2022-10-17T21:26:57.420Z,18.01
2022-10-17T21:29:25.068Z,17.95
2022-10-17T21:31:52.883Z,18.01
2022-10-17T21:34:23.904Z,17.89
2022-10-17T21:36:51.830Z,18.11
2022-10-17T21:39:19.424Z,18.13
2022-10-17T21:41:46.926Z,18.06
2022-10-17T21:44:19.876Z,18.17
2022-10-17T21:46:47.904Z,18.19
2022-10-17T21:49:18.235Z,18.29
2022-10-17T21:51:47.529Z,18.33
2022-10-17T21:54:16.396Z,18.33
2022-10-17T21:56:44.416Z,18.36
2022-10-17T21:59:13.352Z,18.11
2022-10-17T22:01:46.310Z,18.25
2022-10-17T22:04:16.899Z,18.22
2022-10-17T22:06:47.563Z,18.37
2022-10-17T22:09:21.955Z,18.40
2022-10-17T22:11:57.058Z,18.01
2022-10-17T22:14:27.326Z,17.92
2022-10-17T22:16:55.334Z,17.91
2022-10-17T22:19:26.852Z,17.96
2022-10-17T22:21:54.800Z,18.13
2022-10-17T22:24:23.124Z,18.17
2022-10-17T22:26:51.103Z,18.11
2022-10-17T22:29:18.794Z,18.11
2022-10-17T22:31:46.504Z,17.88
2022-10-17T22:34:15.754Z,17.97
2022-10-17T22:36:43.399Z,18.02
2022-10-17T22:39:11.605Z,17.89
2022-10-17T22:41:39.209Z,17.80
2022-10-17T22:44:07.341Z,17.93
2022-10-17T22:46:35.028Z,17.67
2022-10-17T22:49:03.493Z,17.47
2022-10-17T22:51:31.198Z,17.76
2022-10-17T22:53:58.810Z,17.91
2022-10-17T22:56:26.447Z,17.96
2022-10-17T22:58:54.057Z,18.00
2022-10-17T23:01:23.805Z,17.11
2022-10-17T23:03:52.596Z,17.19
2022-10-17T23:06:20.526Z,17.24
2022-10-17T23:08:48.652Z,17.24
2022-10-17T23:11:16.322Z,17.43
2022-10-17T23:13:43.770Z,17.40
2022-10-17T23:16:11.296Z,17.45
2022-10-17T23:18:39.782Z,17.35
2022-10-17T23:21:08.263Z,17.40
2022-10-17T23:23:36.388Z,17.48
2022-10-17T23:26:09.975Z,17.50
2022-10-17T23:28:38.109Z,17.31
2022-10-17T23:31:16.651Z,16.80
2022-10-17T23:33:45.776Z,16.70
2022-10-17T23:36:15.265Z,16.69
2022-10-17T23:38:44.388Z,16.57
2022-10-17T23:41:12.741Z,16.82
2022-10-17T23:43:40.830Z,17.17
2022-10-17T23:46:09.254Z,17.27
